createdAt,value
2017-08-21T00:00:32.417Z,0
2017-08-21T00:01:41.955Z,0
2017-08-21T00:02:51.492Z,0
2017-08-21T00:04:01.345Z,0
2017-08-21T00:05:11.299Z,0
2017-08-21T00:06:20.188Z,0
2017-08-21T00:07:30.040Z,0
2017-08-21T00:08:39.562Z,0
2017-08-21T00:09:49.089Z,0
2017-08-21T00:10:58.446Z,0
2017-08-21T00:12:07.977Z,0
2017-08-21T00:13:17.851Z,0
2017-08-21T00:14:27.384Z,0
2017-08-21T00:15:36.262Z,0
2017-08-21T00:16:45.839Z,0
2017-08-21T00:17:55.048Z,0
2017-08-21T00:19:04.902Z,0
2017-08-21T00:20:14.757Z,0
2017-08-21T00:21:24.313Z,0
2017-08-21T00:22:33.529Z,0
2017-08-21T00:23:43.058Z,0
2017-08-21T00:24:52.912Z,0
2017-08-21T00:26:02.440Z,0
2017-08-21T00:27:11.967Z,0
2017-08-21T00:28:21.604Z,0
2017-08-21T00:29:31.780Z,0
2017-08-21T00:30:40.990Z,0
2017-08-21T00:31:50.196Z,0
2017-08-21T00:32:59.405Z,0
2017-08-21T00:34:09.567Z,0
2017-08-21T00:35:19.422Z,0
2017-08-21T00:36:28.973Z,0
2017-08-21T00:37:37.857Z,0
2017-08-21T00:38:47.061Z,0
2017-08-21T00:39:56.596Z,0
2017-08-21T00:41:06.785Z,0
2017-08-21T00:42:16.640Z,0
2017-08-21T00:43:26.491Z,0
2017-08-21T00:44:36.342Z,0
2017-08-21T00:45:45.327Z,0
2017-08-21T00:46:55.177Z,0
2017-08-21T00:48:04.378Z,0
2017-08-21T00:49:13.908Z,0
2017-08-21T00:50:23.140Z,0
2017-08-21T00:51:32.674Z,0
2017-08-21T00:52:41.882Z,0
2017-08-21T00:53:51.088Z,0
2017-08-21T00:55:00.616Z,0
2017-08-21T00:56:09.818Z,0
2017-08-21T00:57:19.484Z,0
2017-08-21T00:58:28.374Z,0
2017-08-21T00:59:37.577Z,0
2017-08-21T01:00:47.104Z,0
2017-08-21T01:01:56.634Z,0
2017-08-21T01:03:05.994Z,0
2017-08-21T01:04:15.523Z,0
2017-08-21T01:05:24.405Z,0
2017-08-21T01:06:33.608Z,0
2017-08-21T01:07:43.142Z,0
2017-08-21T01:08:52.773Z,0
2017-08-21T01:10:02.314Z,0
2017-08-21T01:11:12.173Z,0
2017-08-21T01:12:22.034Z,0
2017-08-21T01:13:31.562Z,0
2017-08-21T01:14:40.814Z,0
2017-08-21T01:15:50.020Z,0
2017-08-21T01:16:59.229Z,0
2017-08-21T01:18:08.756Z,0
2017-08-21T01:19:18.663Z,0
2017-08-21T01:20:27.657Z,0
2017-08-21T01:21:37.185Z,0
2017-08-21T01:22:46.391Z,0
2017-08-21T01:23:55.592Z,0
2017-08-21T01:25:04.796Z,0
2017-08-21T01:26:14.473Z,0
2017-08-21T01:27:23.359Z,0
2017-08-21T01:28:33.239Z,0
2017-08-21T01:29:42.771Z,0
2017-08-21T01:30:51.977Z,0
2017-08-21T01:32:01.507Z,0
2017-08-21T01:33:10.726Z,0
2017-08-21T01:34:20.263Z,0
2017-08-21T01:35:29.485Z,0
2017-08-21T01:36:38.368Z,0
2017-08-21T01:37:47.723Z,0
2017-08-21T01:38:57.254Z,0
2017-08-21T01:40:06.787Z,0
2017-08-21T01:41:15.993Z,0
2017-08-21T01:42:25.517Z,0
2017-08-21T01:43:34.880Z,0
2017-08-21T01:44:44.412Z,0
2017-08-21T01:45:53.942Z,0
2017-08-21T01:47:03.145Z,0
2017-08-21T01:48:13.003Z,0
2017-08-21T01:49:22.364Z,0
2017-08-21T01:50:32.214Z,0
2017-08-21T01:51:41.098Z,0
2017-08-21T01:52:50.630Z,0
2017-08-21T01:54:00.155Z,0
2017-08-21T01:55:09.982Z,0
2017-08-21T01:56:19.189Z,0
2017-08-21T01:57:28.731Z,0
2017-08-21T01:58:37.932Z,0
2017-08-21T01:59:47.135Z,0
2017-08-21T02:00:56.390Z,0
2017-08-21T02:02:05.918Z,0
2017-08-21T02:03:15.124Z,0
2017-08-21T02:04:24.006Z,0
2017-08-21T02:05:33.216Z,0
2017-08-21T02:06:42.246Z,0
2017-08-21T02:07:51.449Z,0
2017-08-21T02:09:01.298Z,0
2017-08-21T02:10:11.476Z,0
2017-08-21T02:11:20.682Z,0
2017-08-21T02:12:29.937Z,0
2017-08-21T02:13:39.497Z,0
2017-08-21T02:14:49.023Z,0
2017-08-21T02:15:58.551Z,0
2017-08-21T02:17:07.434Z,0
2017-08-21T02:18:16.743Z,0
2017-08-21T02:19:25.959Z,0
2017-08-21T02:20:35.812Z,0
2017-08-21T02:21:44.695Z,0
2017-08-21T02:22:53.903Z,0
2017-08-21T02:24:03.806Z,0
2017-08-21T02:25:13.015Z,0
2017-08-21T02:26:22.551Z,0
2017-08-21T02:27:31.767Z,0
2017-08-21T02:28:40.644Z,0
2017-08-21T02:29:50.510Z,0
2017-08-21T02:31:00.370Z,0
2017-08-21T02:32:09.902Z,0
2017-08-21T02:33:19.432Z,0
2017-08-21T02:34:28.323Z,0
2017-08-21T02:35:38.002Z,0
2017-08-21T02:36:47.528Z,0
2017-08-21T02:37:56.745Z,0
2017-08-21T02:39:05.953Z,0
2017-08-21T02:40:15.509Z,0
2017-08-21T02:41:26.315Z,0
2017-08-21T02:42:35.527Z,0
2017-08-21T02:43:44.732Z,0
2017-08-21T02:44:53.618Z,0
2017-08-21T02:46:03.164Z,0
2017-08-21T02:47:12.845Z,0
2017-08-21T02:48:22.074Z,0
2017-08-21T02:49:31.606Z,0
2017-08-21T02:50:40.485Z,0
2017-08-21T02:51:50.021Z,0
2017-08-21T02:52:59.554Z,0
2017-08-21T02:54:09.410Z,0
2017-08-21T02:55:18.938Z,0
2017-08-21T02:56:27.820Z,0
2017-08-21T02:57:37.360Z,0
2017-08-21T02:58:46.620Z,0
2017-08-21T02:59:55.821Z,0
2017-08-21T03:01:05.347Z,0
2017-08-21T03:02:14.885Z,0
2017-08-21T03:03:24.090Z,0
2017-08-21T03:04:33.671Z,0
2017-08-21T03:05:43.197Z,0
2017-08-21T03:06:52.399Z,0
2017-08-21T03:08:01.603Z,0
2017-08-21T03:09:10.815Z,0
2017-08-21T03:10:20.503Z,0
2017-08-21T03:11:30.029Z,0
2017-08-21T03:12:39.234Z,0
2017-08-21T03:13:48.434Z,0
2017-08-21T03:14:57.957Z,0
2017-08-21T03:16:07.314Z,0
2017-08-21T03:17:16.526Z,0
2017-08-21T03:18:26.060Z,0
2017-08-21T03:19:35.269Z,0
2017-08-21T03:20:44.472Z,0
2017-08-21T03:21:53.830Z,0
2017-08-21T03:23:03.034Z,0
2017-08-21T03:24:12.569Z,0
2017-08-21T03:25:21.779Z,0
2017-08-21T03:26:30.663Z,0
2017-08-21T03:27:39.871Z,0
2017-08-21T03:28:49.723Z,0
2017-08-21T03:29:58.925Z,0
2017-08-21T03:31:08.460Z,0
2017-08-21T03:32:17.672Z,0
2017-08-21T03:33:27.358Z,0
2017-08-21T03:34:37.210Z,0
2017-08-21T03:35:46.734Z,0
2017-08-21T03:36:55.937Z,0
2017-08-21T03:38:05.784Z,0
2017-08-21T03:39:15.132Z,0
2017-08-21T03:40:24.662Z,0
2017-08-21T03:41:33.888Z,0
2017-08-21T03:42:42.767Z,0
2017-08-21T03:43:52.943Z,0
2017-08-21T03:45:02.945Z,0
2017-08-21T03:46:12.149Z,0
2017-08-21T03:47:21.676Z,0
2017-08-21T03:48:31.210Z,4
2017-08-21T03:49:40.743Z,4
2017-08-21T03:50:49.725Z,0
2017-08-21T03:51:58.604Z,4
2017-08-21T03:53:07.808Z,4
2017-08-21T03:54:17.013Z,4
2017-08-21T03:55:26.218Z,8
2017-08-21T03:56:35.430Z,4
2017-08-21T03:57:44.631Z,8
2017-08-21T03:58:53.842Z,8
2017-08-21T04:00:02.724Z,12
2017-08-21T04:01:12.272Z,12
2017-08-21T04:02:21.473Z,16
2017-08-21T04:03:31.001Z,20
2017-08-21T04:04:40.531Z,20
2017-08-21T04:05:50.064Z,24
2017-08-21T04:06:59.617Z,28
2017-08-21T04:08:08.981Z,32
2017-08-21T04:09:19.158Z,36
2017-08-21T04:10:28.039Z,40
2017-08-21T04:11:37.894Z,48
2017-08-21T04:12:47.740Z,56
2017-08-21T04:13:57.273Z,64
2017-08-21T04:15:07.124Z,68
2017-08-21T04:16:16.333Z,76
2017-08-21T04:17:25.531Z,80
2017-08-21T04:18:35.057Z,92
2017-08-21T04:19:44.783Z,100
2017-08-21T04:20:54.628Z,108
2017-08-21T04:22:04.152Z,116
2017-08-21T04:23:13.679Z,128
2017-08-21T04:24:22.885Z,136
2017-08-21T04:25:32.143Z,148
2017-08-21T04:26:41.689Z,156
2017-08-21T04:27:50.895Z,168
2017-08-21T04:29:00.429Z,176
2017-08-21T04:30:09.978Z,188
2017-08-21T04:31:19.430Z,200
2017-08-21T04:32:28.629Z,212
2017-08-21T04:33:38.150Z,224
2017-08-21T04:34:47.357Z,240
2017-08-21T04:35:56.566Z,248
2017-08-21T04:37:06.096Z,260
2017-08-21T04:38:15.302Z,280
2017-08-21T04:39:24.505Z,292
2017-08-21T04:40:33.711Z,304
2017-08-21T04:41:43.258Z,316
2017-08-21T04:42:52.509Z,332
2017-08-21T04:44:01.710Z,360
2017-08-21T04:45:11.236Z,428
2017-08-21T04:46:20.437Z,404
2017-08-21T04:47:29.962Z,384
2017-08-21T04:48:39.593Z,396
2017-08-21T04:49:48.795Z,424
2017-08-21T04:50:57.677Z,476
2017-08-21T04:52:07.202Z,464
2017-08-21T04:53:16.404Z,468
2017-08-21T04:54:25.936Z,496
2017-08-21T04:55:35.145Z,516
2017-08-21T04:56:44.348Z,476
2017-08-21T04:57:53.548Z,480
2017-08-21T04:59:02.748Z,496
2017-08-21T05:00:12.105Z,512
2017-08-21T05:01:22.284Z,528
2017-08-21T05:02:31.811Z,544
2017-08-21T05:03:41.012Z,560
2017-08-21T05:04:50.544Z,580
2017-08-21T05:05:59.433Z,604
2017-08-21T05:07:09.608Z,608
2017-08-21T05:08:18.814Z,636
2017-08-21T05:09:28.661Z,648
2017-08-21T05:10:37.861Z,664
2017-08-21T05:11:47.215Z,680
2017-08-21T05:12:56.752Z,696
2017-08-21T05:14:06.284Z,704
2017-08-21T05:15:15.814Z,724
2017-08-21T05:16:25.019Z,740
2017-08-21T05:17:35.038Z,752
2017-08-21T05:18:44.247Z,768
2017-08-21T05:19:53.456Z,816
2017-08-21T05:21:02.986Z,832
2017-08-21T05:22:12.527Z,840
2017-08-21T05:23:21.785Z,848
2017-08-21T05:24:31.318Z,864
2017-08-21T05:25:40.201Z,876
2017-08-21T05:26:49.090Z,884
2017-08-21T05:27:57.972Z,900
2017-08-21T05:29:07.843Z,912
2017-08-21T05:30:17.696Z,924
2017-08-21T05:31:26.901Z,940
2017-08-21T05:32:36.430Z,952
2017-08-21T05:33:46.285Z,968
2017-08-21T05:34:55.493Z,984
2017-08-21T05:36:05.028Z,996
2017-08-21T05:37:13.905Z,1012
2017-08-21T05:38:23.756Z,1024
2017-08-21T05:39:33.714Z,1036
2017-08-21T05:40:42.955Z,1044
2017-08-21T05:41:52.479Z,1052
2017-08-21T05:43:02.354Z,1064
2017-08-21T05:44:11.568Z,1048
2017-08-21T05:45:21.743Z,1080
2017-08-21T05:46:30.641Z,1092
2017-08-21T05:47:39.537Z,1100
2017-08-21T05:48:48.744Z,1108
2017-08-21T05:49:58.272Z,1120
2017-08-21T05:51:07.799Z,1128
2017-08-21T05:52:17.329Z,1132
2017-08-21T05:53:26.859Z,1140
2017-08-21T05:54:36.537Z,1144
2017-08-21T05:55:45.754Z,1148
2017-08-21T05:56:54.643Z,1156
2017-08-21T05:58:04.182Z,1160
2017-08-21T05:59:14.034Z,1168
2017-08-21T06:00:23.613Z,1172
2017-08-21T06:01:32.497Z,1176
2017-08-21T06:02:42.349Z,1172
2017-08-21T06:03:51.882Z,1176
2017-08-21T06:05:00.766Z,1172
2017-08-21T06:06:10.392Z,1172
2017-08-21T06:07:19.970Z,1176
2017-08-21T06:08:29.206Z,1176
2017-08-21T06:09:38.741Z,1180
2017-08-21T06:10:48.275Z,1184
2017-08-21T06:11:57.208Z,1184
2017-08-21T06:13:07.058Z,1192
2017-08-21T06:14:16.911Z,1196
2017-08-21T06:15:26.770Z,1204
2017-08-21T06:16:36.295Z,1208
2017-08-21T06:17:45.654Z,1216
2017-08-21T06:18:54.856Z,1220
2017-08-21T06:20:04.386Z,1228
2017-08-21T06:21:14.238Z,1244
2017-08-21T06:22:23.769Z,1248
2017-08-21T06:23:33.349Z,1260
2017-08-21T06:24:42.876Z,1272
2017-08-21T06:25:52.730Z,1292
2017-08-21T06:27:01.615Z,1312
2017-08-21T06:28:10.844Z,1336
2017-08-21T06:29:20.867Z,1364
2017-08-21T06:30:30.717Z,1356
2017-08-21T06:31:39.923Z,1336
2017-08-21T06:32:49.783Z,1340
2017-08-21T06:33:59.317Z,1348
2017-08-21T06:35:09.095Z,1360
2017-08-21T06:36:18.623Z,1372
2017-08-21T06:37:28.155Z,1380
2017-08-21T06:38:37.682Z,1392
2017-08-21T06:39:46.892Z,1400
2017-08-21T06:40:56.413Z,1404
2017-08-21T06:42:05.632Z,1412
2017-08-21T06:43:14.839Z,1416
2017-08-21T06:44:24.388Z,1428
2017-08-21T06:45:33.273Z,1428
2017-08-21T06:46:42.305Z,1440
2017-08-21T06:47:51.883Z,1448
2017-08-21T06:49:01.089Z,1460
2017-08-21T06:50:10.618Z,1468
2017-08-21T06:51:20.143Z,1480
2017-08-21T06:52:29.123Z,1484
2017-08-21T06:53:38.328Z,1480
2017-08-21T06:54:48.181Z,1496
2017-08-21T06:55:57.712Z,1512
2017-08-21T06:57:07.572Z,1532
2017-08-21T06:58:16.801Z,1568
2017-08-21T06:59:26.331Z,1596
2017-08-21T07:00:35.535Z,1700
2017-08-21T07:01:44.740Z,1864
2017-08-21T07:02:54.597Z,1932
2017-08-21T07:04:04.277Z,1956
2017-08-21T07:05:13.806Z,2068
2017-08-21T07:06:23.012Z,2132
2017-08-21T07:07:32.223Z,2076
2017-08-21T07:08:41.434Z,1948
2017-08-21T07:09:50.712Z,1880
2017-08-21T07:11:00.579Z,1932
2017-08-21T07:12:10.108Z,2112
2017-08-21T07:13:19.324Z,2200
2017-08-21T07:14:28.529Z,2128
2017-08-21T07:15:39.024Z,2012
2017-08-21T07:16:48.555Z,1844
2017-08-21T07:17:58.116Z,1844
2017-08-21T07:19:07.970Z,1932
2017-08-21T07:20:17.502Z,2208
2017-08-21T07:21:27.661Z,2588
2017-08-21T07:22:37.515Z,2684
2017-08-21T07:23:46.721Z,2484
2017-08-21T07:24:55.613Z,2236
2017-08-21T07:26:04.832Z,2128
2017-08-21T07:27:13.885Z,2064
2017-08-21T07:28:23.093Z,2096
2017-08-21T07:29:32.625Z,2060
2017-08-21T07:30:42.155Z,1988
2017-08-21T07:31:51.686Z,1968
2017-08-21T07:33:01.539Z,2048
2017-08-21T07:34:10.749Z,2224
2017-08-21T07:35:20.010Z,2548
2017-08-21T07:36:29.244Z,3200
2017-08-21T07:37:38.127Z,3804
2017-08-21T07:38:47.007Z,4072
2017-08-21T07:39:56.537Z,4720
2017-08-21T07:41:06.392Z,4560
2017-08-21T07:42:15.601Z,4836
2017-08-21T07:43:24.853Z,4872
2017-08-21T07:44:34.463Z,4428
2017-08-21T07:45:43.669Z,4528
2017-08-21T07:46:53.858Z,4944
2017-08-21T07:48:03.069Z,5312
2017-08-21T07:49:13.244Z,5276
2017-08-21T07:50:22.822Z,4880
2017-08-21T07:51:32.358Z,4584
2017-08-21T07:52:41.887Z,4708
2017-08-21T07:53:51.746Z,4592
2017-08-21T07:55:00.627Z,4400
2017-08-21T07:56:10.318Z,4652
2017-08-21T07:57:19.846Z,4984
2017-08-21T07:58:29.056Z,4524
2017-08-21T07:59:39.270Z,4768
2017-08-21T08:00:48.151Z,5044
2017-08-21T08:01:57.358Z,5080
2017-08-21T08:03:06.565Z,4892
2017-08-21T08:04:15.770Z,5116
2017-08-21T08:05:25.307Z,4980
2017-08-21T08:06:34.536Z,4784
2017-08-21T08:07:44.121Z,5144
2017-08-21T08:08:53.657Z,5600
2017-08-21T08:10:02.865Z,5740
2017-08-21T08:11:12.719Z,5632
2017-08-21T08:12:21.929Z,5672
2017-08-21T08:13:31.189Z,5668
2017-08-21T08:14:40.724Z,5640
2017-08-21T08:15:50.252Z,5532
2017-08-21T08:16:59.458Z,5412
2017-08-21T08:18:08.665Z,5596
2017-08-21T08:19:17.702Z,5732
2017-08-21T08:20:27.243Z,5816
2017-08-21T08:21:36.779Z,5900
2017-08-21T08:22:46.018Z,6244
2017-08-21T08:23:55.233Z,5904
2017-08-21T08:25:04.809Z,5460
2017-08-21T08:26:14.019Z,5312
2017-08-21T08:27:23.549Z,5596
2017-08-21T08:28:33.404Z,6164
2017-08-21T08:29:42.627Z,6152
2017-08-21T08:30:52.630Z,6184
2017-08-21T08:32:02.497Z,6168
2017-08-21T08:33:12.674Z,6128
2017-08-21T08:34:22.221Z,6260
2017-08-21T08:35:31.429Z,6092
2017-08-21T08:36:40.762Z,5996
2017-08-21T08:37:49.972Z,5864
2017-08-21T08:38:59.505Z,5900
2017-08-21T08:40:09.048Z,5912
2017-08-21T08:41:18.258Z,5760
2017-08-21T08:42:28.224Z,5592
2017-08-21T08:43:37.753Z,5592
2017-08-21T08:44:46.958Z,5304
2017-08-21T08:45:56.166Z,4924
2017-08-21T08:47:06.019Z,4316
2017-08-21T08:48:16.206Z,3684
2017-08-21T08:49:26.063Z,3428
2017-08-21T08:50:35.937Z,3012
2017-08-21T08:51:45.482Z,2764
2017-08-21T08:52:55.016Z,2896
2017-08-21T08:54:04.703Z,3084
2017-08-21T08:55:14.239Z,3120
2017-08-21T08:56:23.769Z,2992
2017-08-21T08:57:33.954Z,3004
2017-08-21T08:58:43.159Z,3112
2017-08-21T08:59:53.062Z,3216
2017-08-21T09:01:02.600Z,3480
2017-08-21T09:02:12.472Z,3460
2017-08-21T09:03:22.651Z,3816
2017-08-21T09:04:31.858Z,5652
2017-08-21T09:05:41.548Z,5508
2017-08-21T09:06:51.406Z,6172
2017-08-21T09:08:00.955Z,5092
2017-08-21T09:09:10.161Z,6312
2017-08-21T09:10:20.342Z,5396
2017-08-21T09:11:30.500Z,5072
2017-08-21T09:12:40.359Z,5376
2017-08-21T09:13:50.216Z,6280
2017-08-21T09:14:59.751Z,6880
2017-08-21T09:16:09.285Z,7856
2017-08-21T09:17:18.496Z,7932
2017-08-21T09:18:28.352Z,7340
2017-08-21T09:19:37.886Z,5676
2017-08-21T09:20:48.067Z,5428
2017-08-21T09:21:57.301Z,3536
2017-08-21T09:23:06.846Z,3244
2017-08-21T09:24:16.720Z,2736
2017-08-21T09:25:26.253Z,1796
2017-08-21T09:26:35.468Z,1860
2017-08-21T09:27:45.035Z,3612
2017-08-21T09:28:54.342Z,5192
2017-08-21T09:30:04.530Z,7256
2017-08-21T09:31:14.069Z,7760
2017-08-21T09:32:22.957Z,7420
2017-08-21T09:33:32.812Z,7064
2017-08-21T09:34:42.981Z,6132
2017-08-21T09:35:52.846Z,6256
2017-08-21T09:37:02.380Z,6544
2017-08-21T09:38:12.240Z,6128
2017-08-21T09:39:22.097Z,5640
2017-08-21T09:40:31.478Z,5028
2017-08-21T09:41:40.686Z,4540
2017-08-21T09:42:49.571Z,4480
2017-08-21T09:43:59.430Z,4916
2017-08-21T09:45:08.649Z,5488
2017-08-21T09:46:17.585Z,5224
2017-08-21T09:47:27.441Z,5776
2017-08-21T09:48:37.301Z,7352
2017-08-21T09:49:46.516Z,7276
2017-08-21T09:50:56.048Z,7672
2017-08-21T09:52:05.305Z,8108
2017-08-21T09:53:14.193Z,7712
2017-08-21T09:54:23.401Z,5272
2017-08-21T09:55:32.615Z,3832
2017-08-21T09:56:41.503Z,4244
2017-08-21T09:57:51.186Z,4720
2017-08-21T09:59:00.397Z,5572
2017-08-21T10:00:09.282Z,6184
2017-08-21T10:01:18.493Z,6236
2017-08-21T10:02:28.026Z,6552
2017-08-21T10:03:37.958Z,7244
2017-08-21T10:04:47.492Z,5044
2017-08-21T10:05:57.045Z,4036
2017-08-21T10:07:06.259Z,5056
2017-08-21T10:08:16.117Z,4432
2017-08-21T10:09:25.151Z,5224
2017-08-21T10:10:34.687Z,6328
2017-08-21T10:11:43.895Z,6868
2017-08-21T10:12:53.754Z,7300
2017-08-21T10:14:02.963Z,7092
2017-08-21T10:15:12.105Z,7804
2017-08-21T10:16:21.689Z,6416
2017-08-21T10:17:30.579Z,6372
2017-08-21T10:18:39.788Z,4824
2017-08-21T10:19:49.329Z,4844
2017-08-21T10:20:58.644Z,4700
2017-08-21T10:22:08.504Z,5656
2017-08-21T10:23:18.366Z,5392
2017-08-21T10:24:27.901Z,6464
2017-08-21T10:25:37.754Z,5540
2017-08-21T10:26:48.187Z,4508
2017-08-21T10:27:58.366Z,4500
2017-08-21T10:29:07.573Z,4528
2017-08-21T10:30:17.104Z,4572
2017-08-21T10:31:26.963Z,4648
2017-08-21T10:32:36.606Z,4768
2017-08-21T10:33:46.138Z,5076
2017-08-21T10:34:55.671Z,5708
2017-08-21T10:36:04.886Z,6708
2017-08-21T10:37:14.101Z,5532
2017-08-21T10:38:23.410Z,5764
2017-08-21T10:39:32.621Z,5800
2017-08-21T10:40:41.848Z,6112
2017-08-21T10:41:51.071Z,7432
2017-08-21T10:43:00.282Z,7180
2017-08-21T10:44:09.490Z,7932
2017-08-21T10:45:19.025Z,9936
2017-08-21T10:46:28.561Z,8836
2017-08-21T10:47:38.421Z,5520
2017-08-21T10:48:47.954Z,2580
2017-08-21T10:49:57.499Z,1700
2017-08-21T10:51:07.358Z,1488
2017-08-21T10:52:16.895Z,1484
2017-08-21T10:53:26.431Z,2268
2017-08-21T10:54:36.297Z,2692
2017-08-21T10:55:46.130Z,2652
2017-08-21T10:56:55.672Z,2536
2017-08-21T10:58:05.203Z,2488
2017-08-21T10:59:14.410Z,2536
2017-08-21T11:00:24.268Z,2844
2017-08-21T11:01:33.955Z,3056
2017-08-21T11:02:44.145Z,3280
2017-08-21T11:03:54.008Z,3552
2017-08-21T11:05:03.553Z,3824
2017-08-21T11:06:13.088Z,4424
2017-08-21T11:07:22.304Z,4676
2017-08-21T11:08:32.162Z,4716
2017-08-21T11:09:42.017Z,5164
2017-08-21T11:10:51.230Z,5832
2017-08-21T11:12:01.408Z,6596
2017-08-21T11:13:11.643Z,7884
2017-08-21T11:14:20.857Z,9532
2017-08-21T11:15:30.717Z,11468
2017-08-21T11:16:39.930Z,11952
2017-08-21T11:17:49.238Z,12440
2017-08-21T11:18:58.122Z,11592
2017-08-21T11:20:07.670Z,11064
2017-08-21T11:21:16.881Z,11540
2017-08-21T11:22:26.094Z,11700
2017-08-21T11:23:35.640Z,11476
2017-08-21T11:24:45.158Z,11540
2017-08-21T11:25:54.371Z,10848
2017-08-21T11:27:03.580Z,10152
2017-08-21T11:28:13.435Z,10744
2017-08-21T11:29:22.972Z,11100
2017-08-21T11:30:32.712Z,10852
2017-08-21T11:31:41.972Z,11304
2017-08-21T11:32:50.861Z,10940
2017-08-21T11:34:00.398Z,10348
2017-08-21T11:35:10.264Z,10704
2017-08-21T11:36:19.948Z,11252
2017-08-21T11:37:29.480Z,10696
2017-08-21T11:38:38.371Z,10448
2017-08-21T11:39:47.582Z,9228
2017-08-21T11:40:57.435Z,8112
2017-08-21T11:42:07.616Z,7500
2017-08-21T11:43:16.512Z,7772
2017-08-21T11:44:26.371Z,8556
2017-08-21T11:45:35.583Z,9496
2017-08-21T11:46:44.794Z,10568
2017-08-21T11:47:54.056Z,11420
2017-08-21T11:49:03.266Z,12268
2017-08-21T11:50:12.805Z,12852
2017-08-21T11:51:22.687Z,12528
2017-08-21T11:52:32.544Z,11960
2017-08-21T11:53:42.450Z,11512
2017-08-21T11:54:52.319Z,10340
2017-08-21T11:56:01.890Z,9624
2017-08-21T11:57:11.428Z,7032
2017-08-21T11:58:20.977Z,4208
2017-08-21T11:59:30.518Z,3096
2017-08-21T12:00:39.747Z,2868
2017-08-21T12:01:48.974Z,3492
2017-08-21T12:02:58.831Z,4832
2017-08-21T12:04:08.372Z,5056
2017-08-21T12:05:17.890Z,5592
2017-08-21T12:06:27.422Z,4992
2017-08-21T12:07:37.602Z,4804
2017-08-21T12:08:47.138Z,4968
2017-08-21T12:09:57.039Z,4748
2017-08-21T12:11:07.050Z,4980
2017-08-21T12:12:17.243Z,5240
2017-08-21T12:13:27.102Z,5652
2017-08-21T12:14:36.985Z,5848
2017-08-21T12:15:46.517Z,5748
2017-08-21T12:16:55.553Z,5792
2017-08-21T12:18:05.410Z,5956
2017-08-21T12:19:15.316Z,5984
2017-08-21T12:20:25.175Z,5844
2017-08-21T12:21:34.721Z,5704
2017-08-21T12:22:44.587Z,5852
2017-08-21T12:23:54.441Z,6336
2017-08-21T12:25:04.027Z,6760
2017-08-21T12:26:13.567Z,6924
2017-08-21T12:27:23.094Z,7088
2017-08-21T12:28:32.557Z,7716
2017-08-21T12:29:42.086Z,9224
2017-08-21T12:30:51.941Z,11260
2017-08-21T12:32:01.159Z,11920
2017-08-21T12:33:10.365Z,11828
2017-08-21T12:34:19.898Z,10284
2017-08-21T12:35:29.432Z,10256
2017-08-21T12:36:38.969Z,10264
2017-08-21T12:37:48.521Z,11140
2017-08-21T12:38:58.060Z,13412
2017-08-21T12:40:06.952Z,14692
2017-08-21T12:41:16.522Z,15324
2017-08-21T12:42:26.066Z,12284
2017-08-21T12:43:36.246Z,10044
2017-08-21T12:44:45.133Z,10596
2017-08-21T12:45:54.837Z,12396
2017-08-21T12:47:04.085Z,14808
2017-08-21T12:48:13.969Z,11680
2017-08-21T12:49:23.529Z,11632
2017-08-21T12:50:32.413Z,12824
2017-08-21T12:51:42.574Z,14096
2017-08-21T12:52:52.114Z,14624
2017-08-21T12:54:01.007Z,15204
2017-08-21T12:55:10.539Z,14280
2017-08-21T12:56:20.070Z,14184
2017-08-21T12:57:29.282Z,15452
2017-08-21T12:58:38.821Z,15408
2017-08-21T12:59:48.369Z,14004
2017-08-21T13:00:57.578Z,12060
2017-08-21T13:02:06.810Z,11972
2017-08-21T13:03:16.765Z,12852
2017-08-21T13:04:26.299Z,14576
2017-08-21T13:05:35.551Z,15732
2017-08-21T13:06:45.082Z,18848
2017-08-21T13:07:54.622Z,17696
2017-08-21T13:09:04.204Z,18048
2017-08-21T13:10:14.067Z,32448
2017-08-21T13:11:23.610Z,10644
2017-08-21T13:12:33.149Z,8948
2017-08-21T13:13:42.709Z,7288
2017-08-21T13:14:52.077Z,6204
2017-08-21T13:16:01.617Z,5680
2017-08-21T13:17:11.477Z,5112
2017-08-21T13:18:21.024Z,4168
2017-08-21T13:19:30.238Z,3388
2017-08-21T13:20:40.503Z,2544
2017-08-21T13:21:49.392Z,2176
2017-08-21T13:22:58.929Z,2084
2017-08-21T13:24:08.465Z,1960
2017-08-21T13:25:18.656Z,2516
2017-08-21T13:26:28.788Z,3324
2017-08-21T13:27:38.328Z,4108
2017-08-21T13:28:47.538Z,4188
2017-08-21T13:29:56.430Z,4512
2017-08-21T13:31:05.970Z,5916
2017-08-21T13:32:15.629Z,7220
2017-08-21T13:33:24.520Z,8688
2017-08-21T13:34:34.050Z,10076
2017-08-21T13:35:43.908Z,10692
2017-08-21T13:36:53.122Z,11708
2017-08-21T13:38:02.910Z,12864
2017-08-21T13:39:13.115Z,13656
2017-08-21T13:40:23.298Z,14704
2017-08-21T13:41:32.188Z,15668
2017-08-21T13:42:42.056Z,15576
2017-08-21T13:43:51.266Z,18496
2017-08-21T13:45:00.479Z,20864
2017-08-21T13:46:10.790Z,25344
2017-08-21T13:47:20.664Z,39232
2017-08-21T13:48:29.882Z,44416
2017-08-21T13:49:39.198Z,48064
2017-08-21T13:50:49.049Z,8304
2017-08-21T13:51:58.260Z,6732
2017-08-21T13:53:08.122Z,7176
2017-08-21T13:54:18.305Z,6092
2017-08-21T13:55:27.941Z,5736
2017-08-21T13:56:37.157Z,5124
2017-08-21T13:57:46.371Z,3944
2017-08-21T13:58:55.916Z,2728
2017-08-21T14:00:05.785Z,2696
2017-08-21T14:01:15.800Z,2276
2017-08-21T14:02:25.339Z,2044
2017-08-21T14:03:35.196Z,2340
2017-08-21T14:04:44.739Z,2928
2017-08-21T14:05:53.950Z,2992
2017-08-21T14:07:04.137Z,2920
2017-08-21T14:08:13.994Z,2900
2017-08-21T14:09:24.184Z,3344
2017-08-21T14:10:33.077Z,3896
2017-08-21T14:11:42.296Z,4552
2017-08-21T14:12:51.492Z,4924
2017-08-21T14:14:00.732Z,4796
2017-08-21T14:15:10.279Z,5344
2017-08-21T14:16:20.157Z,6152
2017-08-21T14:17:29.426Z,5548
2017-08-21T14:18:39.381Z,6360
2017-08-21T14:19:48.600Z,6336
2017-08-21T14:20:58.136Z,5400
2017-08-21T14:22:07.674Z,5168
2017-08-21T14:23:16.585Z,6000
2017-08-21T14:24:26.218Z,6024
2017-08-21T14:25:35.105Z,4928
2017-08-21T14:26:44.330Z,4088
2017-08-21T14:27:54.194Z,3636
2017-08-21T14:29:04.056Z,3176
2017-08-21T14:30:13.418Z,2776
2017-08-21T14:31:22.635Z,2496
2017-08-21T14:32:32.172Z,3016
2017-08-21T14:33:41.703Z,3968
2017-08-21T14:34:50.917Z,5172
2017-08-21T14:36:00.501Z,6296
2017-08-21T14:37:10.045Z,5916
2017-08-21T14:38:19.585Z,4880
2017-08-21T14:39:28.839Z,4488
2017-08-21T14:40:38.057Z,3308
2017-08-21T14:41:47.316Z,2056
2017-08-21T14:42:56.872Z,1848
2017-08-21T14:44:06.415Z,1544
2017-08-21T14:45:15.299Z,892
2017-08-21T14:46:24.186Z,780
2017-08-21T14:47:33.179Z,760
2017-08-21T14:48:42.937Z,768
2017-08-21T14:49:52.838Z,816
2017-08-21T14:51:02.412Z,1012
2017-08-21T14:52:11.624Z,1592
2017-08-21T14:53:21.165Z,2760
2017-08-21T14:54:30.707Z,3880
2017-08-21T14:55:39.927Z,4308
2017-08-21T14:56:49.811Z,4924
2017-08-21T14:57:58.698Z,5788
2017-08-21T14:59:07.906Z,6804
2017-08-21T15:00:17.145Z,7696
2017-08-21T15:01:27.010Z,8084
2017-08-21T15:02:36.546Z,7716
2017-08-21T15:03:46.732Z,6660
2017-08-21T15:04:56.280Z,5968
2017-08-21T15:06:05.813Z,5408
2017-08-21T15:07:15.207Z,4168
2017-08-21T15:08:24.397Z,3512
2017-08-21T15:09:33.806Z,3448
2017-08-21T15:10:43.463Z,3696
2017-08-21T15:11:52.894Z,4724
2017-08-21T15:13:02.084Z,5808
2017-08-21T15:14:12.368Z,5752
2017-08-21T15:15:22.232Z,5160
2017-08-21T15:16:31.122Z,4580
2017-08-21T15:17:40.011Z,4420
2017-08-21T15:18:49.850Z,5188
2017-08-21T15:19:59.389Z,5820
2017-08-21T15:21:08.276Z,5836
2017-08-21T15:22:17.809Z,6152
2017-08-21T15:23:27.023Z,6520
2017-08-21T15:24:36.625Z,6452
2017-08-21T15:25:46.166Z,6048
2017-08-21T15:26:55.707Z,5588
2017-08-21T15:28:04.918Z,5356
2017-08-21T15:29:15.099Z,5444
2017-08-21T15:30:25.398Z,6576
2017-08-21T15:31:34.617Z,6960
2017-08-21T15:32:43.828Z,8548
2017-08-21T15:33:53.397Z,28064
2017-08-21T15:35:02.609Z,16960
2017-08-21T15:36:12.146Z,8204
2017-08-21T15:37:22.002Z,12092
2017-08-21T15:38:31.218Z,24896
2017-08-21T15:39:40.439Z,9648
2017-08-21T15:40:49.730Z,17760
2017-08-21T15:41:58.981Z,25696
2017-08-21T15:43:08.517Z,12004
2017-08-21T15:44:18.058Z,8020
2017-08-21T15:45:27.986Z,14496
2017-08-21T15:46:37.536Z,26688
2017-08-21T15:47:47.132Z,28256
2017-08-21T15:48:56.670Z,19552